Vidor, Texas
Current Conditions -  °F | °C
As of 1:53 PM on Monday 24 Nov 2014 (Local Time) from KBPT Reporting Station
Clear Clear  
Wind Chill: 66°   Ceiling: Unl
Heat Index: 66°   Visibility: 10mi
Dew Point: 34°   Wind: 18mph
Humidity: 30%   Direction: 10°N
Pressure: 29.98"   Gusts: 23mph
Location:  30.12°N, 94.01°W
Report Text: KBPT 241953Z 01016G20KT 10SM CLR 19/01 A2998 RMK AO2 RAB10E19 SLP152 P0000 T01890011
Loading
Personal Weather Stations






























Interactive Weather Map New forecast layout! Learn more

10-Day Weather Forecast

Advertisements
Track Severe Weather on mobile